createdAt,value
2022-08-16T00:02:55.967Z,99777.94
2022-08-16T00:06:57.563Z,99778.00
2022-08-16T00:10:59.423Z,99784.13
2022-08-16T00:15:06.944Z,99785.03
2022-08-16T00:19:16.797Z,99799.88
2022-08-16T00:23:18.364Z,99798.25
2022-08-16T00:27:36.074Z,99800.06
2022-08-16T00:32:00.041Z,99789.72
2022-08-16T00:36:00.958Z,99799.28
2022-08-16T00:40:06.640Z,99798.44
2022-08-16T00:44:31.753Z,99807.13
2022-08-16T00:48:44.325Z,99802.81
2022-08-16T00:52:51.509Z,99802.06
2022-08-16T00:56:56.824Z,99808.19
2022-08-16T01:01:00.445Z,99806.53
2022-08-16T01:05:09.019Z,99807.44
2022-08-16T01:09:14.126Z,99805.75
2022-08-16T01:13:26.762Z,99805.81
2022-08-16T01:17:30.422Z,99812.78
2022-08-16T01:22:49.551Z,99816.28
2022-08-16T01:26:34.813Z,99818.09
2022-08-16T01:30:49.493Z,99822.56
2022-08-16T01:34:56.666Z,99814.78
2022-08-16T01:38:59.029Z,99814.81
2022-08-16T01:43:01.575Z,99813.13
2022-08-16T01:47:04.025Z,99802.78
2022-08-16T01:51:16.406Z,99809.75
2022-08-16T01:55:22.160Z,99804.56
2022-08-16T01:59:24.785Z,99815.88
2022-08-16T02:03:26.828Z,99810.66
2022-08-16T02:07:30.680Z,99804.63
2022-08-16T02:11:47.329Z,99814.22
2022-08-16T02:15:50.637Z,99807.34
2022-08-16T02:19:59.232Z,99803.09
2022-08-16T02:24:02.098Z,99805.75
2022-08-16T02:28:24.673Z,99809.25
2022-08-16T02:32:51.062Z,99804.94
2022-08-16T02:36:49.843Z,99811.84
2022-08-16T02:40:56.441Z,99811.91
2022-08-16T02:44:58.059Z,99805.84
2022-08-16T02:49:01.831Z,99816.34
2022-08-16T02:53:04.216Z,99803.34
2022-08-16T02:57:06.080Z,99800.75
2022-08-16T03:01:13.876Z,99788.63
2022-08-16T03:05:30.858Z,99780.88
2022-08-16T03:09:35.276Z,99782.63
2022-08-16T03:13:40.102Z,99772.22
2022-08-16T03:17:53.732Z,99774.81
2022-08-16T03:21:56.830Z,99776.56
2022-08-16T03:25:58.430Z,99776.63
2022-08-16T03:30:16.681Z,99774.06
2022-08-16T03:34:24.675Z,99780.09
2022-08-16T03:38:33.967Z,99777.50
2022-08-16T03:43:19.109Z,99784.47
2022-08-16T03:47:10.342Z,99785.41
2022-08-16T03:51:13.229Z,99777.63
2022-08-16T03:55:21.616Z,99774.19
2022-08-16T03:59:31.443Z,99780.28
2022-08-16T04:03:37.577Z,99782.03
2022-08-16T04:07:39.800Z,99779.50
2022-08-16T04:11:42.175Z,99776.03
2022-08-16T04:15:44.041Z,99776.03
2022-08-16T04:19:58.237Z,99777.78
2022-08-16T04:24:02.794Z,99782.09
2022-08-16T04:28:54.656Z,99781.22
2022-08-16T04:32:26.497Z,99796.78
2022-08-16T04:36:28.812Z,99801.09
2022-08-16T04:40:31.938Z,99811.44
2022-08-16T04:44:53.655Z,99813.97
2022-08-16T04:48:56.347Z,99813.78
2022-08-16T04:52:59.934Z,99822.31
2022-08-16T04:57:04.911Z,99817.09
2022-08-16T05:01:08.750Z,99823.16
2022-08-16T05:05:17.040Z,99811.84
2022-08-16T05:09:19.356Z,99816.06
2022-08-16T05:13:39.947Z,99819.47
2022-08-16T05:17:45.420Z,99825.56
2022-08-16T05:21:49.387Z,99834.13
2022-08-16T05:25:53.497Z,99834.88
2022-08-16T05:29:57.082Z,99828.75
2022-08-16T05:34:03.697Z,99840.81
2022-08-16T05:38:33.039Z,99836.41
2022-08-16T05:42:35.832Z,99827.59
2022-08-16T05:46:43.596Z,99839.56
2022-08-16T05:50:52.889Z,99849.75
2022-08-16T05:54:58.549Z,99846.19
2022-08-16T05:59:07.499Z,99845.34
2022-08-16T06:03:13.127Z,99845.22
2022-08-16T06:07:32.441Z,99846.78
2022-08-16T06:11:52.588Z,99847.56
2022-08-16T06:15:54.346Z,99841.50
2022-08-16T06:19:56.404Z,99855.25
2022-08-16T06:24:01.032Z,99849.06
2022-08-16T06:28:08.914Z,99850.06
2022-08-16T06:32:13.403Z,99866.59
2022-08-16T06:36:32.397Z,99871.50
2022-08-16T06:40:51.846Z,99864.97
2022-08-16T06:44:53.683Z,99866.19
2022-08-16T06:49:13.930Z,99863.19
2022-08-16T06:53:19.018Z,99865.44
2022-08-16T06:57:39.620Z,99866.00
2022-08-16T07:01:44.381Z,99865.69
2022-08-16T07:05:49.430Z,99865.47
2022-08-16T07:10:00.153Z,99870.34
2022-08-16T07:14:24.152Z,99857.81
2022-08-16T07:18:29.614Z,99864.28
2022-08-16T07:22:37.496Z,99860.31
2022-08-16T07:27:00.507Z,99862.50
2022-08-16T07:31:03.332Z,99858.09
2022-08-16T07:35:09.033Z,99855.00
2022-08-16T07:39:10.867Z,99858.19
2022-08-16T07:43:14.128Z,99857.69
2022-08-16T07:47:15.855Z,99859.69
2022-08-16T07:51:18.505Z,99875.53
2022-08-16T07:55:20.578Z,99869.34
2022-08-16T07:59:24.540Z,99861.31
2022-08-16T08:03:35.978Z,99863.78
2022-08-16T08:07:44.169Z,99867.56
2022-08-16T08:12:00.791Z,99859.50
2022-08-16T08:16:06.404Z,99866.72
2022-08-16T08:20:28.108Z,99875.91
2022-08-16T08:24:34.704Z,99877.28
2022-08-16T08:28:39.122Z,99873.13
2022-08-16T08:32:57.230Z,99875.75
2022-08-16T08:37:01.769Z,99874.97
2022-08-16T08:41:08.858Z,99871.75
2022-08-16T08:45:29.829Z,99873.34
2022-08-16T08:49:46.790Z,99879.00
2022-08-16T08:53:58.464Z,99874.63
2022-08-16T08:58:03.722Z,99879.22
2022-08-16T09:02:16.100Z,99865.59
2022-08-16T09:06:26.307Z,99872.31
2022-08-16T09:10:32.511Z,99872.81
2022-08-16T09:14:38.632Z,99874.34
2022-08-16T09:18:40.435Z,99869.06
2022-08-16T09:22:42.725Z,99875.50
2022-08-16T09:26:46.977Z,99862.44
2022-08-16T09:30:55.431Z,99868.84
2022-08-16T09:34:58.332Z,99883.06
2022-08-16T09:39:02.127Z,99882.94
2022-08-16T09:43:04.774Z,99881.44
2022-08-16T09:47:10.337Z,99882.69
2022-08-16T09:51:13.589Z,99871.03
2022-08-16T09:55:15.612Z,99862.22
2022-08-16T09:59:18.471Z,99871.03
2022-08-16T10:03:21.899Z,99857.63
2022-08-16T10:07:44.104Z,99854.06
2022-08-16T10:12:11.810Z,99852.16
2022-08-16T10:16:21.989Z,99852.56
2022-08-16T10:20:25.614Z,99847.00
2022-08-16T10:24:28.996Z,99856.34
2022-08-16T10:28:32.282Z,99855.41
2022-08-16T10:32:40.710Z,99848.63
2022-08-16T10:36:42.808Z,99854.28
2022-08-16T10:40:46.498Z,99843.66
2022-08-16T10:44:53.832Z,99843.19
2022-08-16T10:48:56.418Z,99847.03
2022-08-16T10:52:59.067Z,99844.00
2022-08-16T10:57:03.887Z,99844.97
2022-08-16T11:09:53.974Z,99851.09
2022-08-16T11:13:59.780Z,99849.59
2022-08-16T11:19:04.457Z,99853.00
2022-08-16T11:22:47.060Z,99853.53
2022-08-16T11:27:18.664Z,99859.91
2022-08-16T11:31:14.266Z,99851.16
2022-08-16T11:35:43.414Z,99858.13
2022-08-16T11:39:43.477Z,99862.38
2022-08-16T11:43:46.796Z,99864.72
2022-08-16T11:47:49.104Z,99856.06
2022-08-16T11:51:51.623Z,99847.94
2022-08-16T11:55:54.617Z,99858.31
2022-08-16T11:59:57.836Z,99833.31
2022-08-16T12:04:00.035Z,99833.00
2022-08-16T12:08:05.433Z,99846.94
2022-08-16T12:12:07.620Z,99843.25
2022-08-16T12:16:10.462Z,99842.09
2022-08-16T12:20:19.143Z,99839.13
2022-08-16T12:24:21.865Z,99834.69
2022-08-16T12:28:54.304Z,99830.38
2022-08-16T12:32:51.397Z,99830.88
2022-08-16T12:36:54.673Z,99833.47
2022-08-16T12:40:58.147Z,99822.63
2022-08-16T12:45:01.404Z,99829.13
2022-08-16T12:49:06.356Z,99824.47
2022-08-16T12:53:09.570Z,99833.47
2022-08-16T12:57:14.407Z,99814.78
2022-08-16T13:01:26.762Z,99809.19
2022-08-16T13:09:47.784Z,99803.03
2022-08-16T13:13:54.870Z,99793.38
2022-08-16T13:17:57.898Z,99796.72
2022-08-16T13:22:01.182Z,99797.78
2022-08-16T13:26:05.755Z,99799.31
2022-08-16T13:30:22.138Z,99803.50
2022-08-16T13:34:32.245Z,99798.91
2022-08-16T13:38:37.613Z,99799.16
2022-08-16T13:42:43.003Z,99798.00
2022-08-16T13:46:47.394Z,99792.16
2022-08-16T13:50:51.645Z,99793.84
2022-08-16T13:54:53.658Z,99790.41
2022-08-16T13:58:55.678Z,99784.50
2022-08-16T14:02:59.225Z,99782.28
2022-08-16T14:07:03.544Z,99777.31
2022-08-16T14:11:05.603Z,99775.00
2022-08-16T14:15:15.893Z,99777.63
2022-08-16T14:19:22.461Z,99762.88
2022-08-16T14:23:24.467Z,99760.59
2022-08-16T14:27:28.463Z,99752.41
2022-08-16T14:31:31.812Z,99755.59
2022-08-16T14:35:48.198Z,99753.25
2022-08-16T14:39:50.599Z,99750.34
2022-08-16T14:43:53.448Z,99739.50
2022-08-16T14:47:55.086Z,99746.81
2022-08-16T14:52:44.509Z,99741.91
2022-08-16T14:56:55.284Z,99734.00
2022-08-16T15:00:58.263Z,99730.81
2022-08-16T15:05:01.272Z,99731.47
2022-08-16T15:09:05.068Z,99727.19
2022-08-16T15:13:09.663Z,99727.44
2022-08-16T15:17:12.171Z,99719.25
2022-08-16T15:21:14.468Z,99729.81
2022-08-16T15:25:29.059Z,99726.19
2022-08-16T15:29:31.592Z,99722.25
2022-08-16T15:33:42.620Z,99729.91
2022-08-16T15:37:46.401Z,99733.56
2022-08-16T15:42:01.152Z,99730.34
2022-08-16T15:46:34.548Z,99728.03
2022-08-16T15:50:39.788Z,99720.69
2022-08-16T15:54:52.948Z,99721.00
2022-08-16T15:58:56.020Z,99727.59
2022-08-16T16:03:10.514Z,99728.78
2022-08-16T16:07:12.759Z,99712.81
2022-08-16T16:11:16.475Z,99722.25
2022-08-16T16:15:23.039Z,99721.66
2022-08-16T16:19:26.484Z,99717.41
2022-08-16T16:23:33.883Z,99718.94
2022-08-16T16:27:36.100Z,99716.31
2022-08-16T16:31:38.887Z,99709.59
2022-08-16T16:35:41.354Z,99713.09
2022-08-16T16:39:48.564Z,99724.28
2022-08-16T16:43:54.015Z,99719.84
2022-08-16T16:47:55.703Z,99722.41
2022-08-16T16:52:07.450Z,99710.13
2022-08-16T16:56:20.283Z,99714.50
2022-08-16T17:00:38.657Z,99711.19
2022-08-16T17:04:40.472Z,99709.50
2022-08-16T17:08:43.066Z,99701.63
2022-08-16T17:12:47.652Z,99698.41
2022-08-16T17:16:49.269Z,99710.13
2022-08-16T17:20:51.439Z,99715.84
2022-08-16T17:24:54.891Z,99710.31
2022-08-16T17:29:00.215Z,99712.75
2022-08-16T17:33:07.373Z,99717.22
2022-08-16T17:37:09.127Z,99710.81
2022-08-16T17:41:11.386Z,99718.53
2022-08-16T17:45:13.565Z,99711.06
2022-08-16T17:49:15.135Z,99720.50
2022-08-16T17:53:16.896Z,99726.47
2022-08-16T17:57:18.542Z,99726.88
2022-08-16T18:01:25.638Z,99730.06
2022-08-16T18:05:28.710Z,99732.13
2022-08-16T18:09:30.715Z,99728.81
2022-08-16T18:13:33.209Z,99728.97
2022-08-16T18:17:34.952Z,99717.56
2022-08-16T18:21:55.097Z,99724.44
2022-08-16T18:25:59.530Z,99728.78
2022-08-16T18:30:01.247Z,99738.22
2022-08-16T18:34:03.311Z,99735.50
2022-08-16T18:38:05.281Z,99726.47
2022-08-16T18:42:09.441Z,99727.09
2022-08-16T18:46:11.133Z,99718.97
2022-08-16T18:50:12.709Z,99734.50
2022-08-16T18:54:18.098Z,99736.88
2022-08-16T18:58:20.215Z,99738.44
2022-08-16T19:02:43.032Z,99746.06
2022-08-16T19:06:47.703Z,99746.56
2022-08-16T19:10:50.996Z,99754.75
2022-08-16T19:14:52.615Z,99748.97
2022-08-16T19:18:54.258Z,99750.22
2022-08-16T19:23:05.245Z,99751.53
2022-08-16T19:27:10.095Z,99758.91
2022-08-16T19:31:19.337Z,99760.13
2022-08-16T19:35:22.109Z,99766.56
2022-08-16T19:39:23.686Z,99773.91
2022-08-16T19:43:25.376Z,99783.88
2022-08-16T19:47:27.067Z,99779.91
2022-08-16T19:51:29.081Z,99782.91
2022-08-16T19:55:30.934Z,99777.03
2022-08-16T19:59:40.342Z,99783.34
2022-08-16T20:03:42.358Z,99794.88
2022-08-16T20:07:44.205Z,99796.97
2022-08-16T20:11:46.752Z,99802.56
2022-08-16T20:15:49.642Z,99806.31
2022-08-16T20:19:51.299Z,99818.84
2022-08-16T20:24:01.303Z,99805.13
2022-08-16T20:28:11.833Z,99818.38
2022-08-16T20:32:45.990Z,99817.00
2022-08-16T20:36:47.573Z,99818.31
2022-08-16T20:40:49.193Z,99822.13
2022-08-16T20:44:54.103Z,99828.44
2022-08-16T20:48:55.683Z,99827.72
2022-08-16T20:52:57.361Z,99824.47
2022-08-16T20:57:00.110Z,99829.09
2022-08-16T21:01:02.348Z,99829.34
2022-08-16T21:05:05.264Z,99824.31
2022-08-16T21:09:07.486Z,99828.03
2022-08-16T21:13:12.180Z,99826.56
2022-08-16T21:17:15.951Z,99826.19
2022-08-16T21:21:17.546Z,99834.13
2022-08-16T21:25:19.464Z,99838.66
2022-08-16T21:29:39.664Z,99835.31
2022-08-16T21:33:54.101Z,99832.03
2022-08-16T21:38:11.338Z,99839.06
2022-08-16T21:42:19.715Z,99833.09
2022-08-16T21:46:21.330Z,99836.66
2022-08-16T21:50:22.922Z,99852.41
2022-08-16T21:54:25.773Z,99847.41
2022-08-16T21:58:28.037Z,99850.31
2022-08-16T22:02:35.694Z,99855.34
2022-08-16T22:06:41.201Z,99852.22
2022-08-16T22:11:07.695Z,99856.94
2022-08-16T22:15:05.898Z,99842.53
2022-08-16T22:19:07.762Z,99846.88
2022-08-16T22:23:15.670Z,99858.22
2022-08-16T22:27:17.239Z,99843.44
2022-08-16T22:31:18.984Z,99843.53
2022-08-16T22:35:23.866Z,99845.38
2022-08-16T22:39:26.112Z,99836.81
2022-08-16T22:43:28.077Z,99841.28
2022-08-16T22:47:29.623Z,99852.59
2022-08-16T22:51:31.679Z,99855.28
2022-08-16T22:55:35.273Z,99857.06
2022-08-16T22:59:36.816Z,99858.91
2022-08-16T23:03:39.144Z,99863.41
2022-08-16T23:07:40.689Z,99863.63
2022-08-16T23:11:42.281Z,99861.16
2022-08-16T23:15:45.197Z,99851.72
2022-08-16T23:19:46.814Z,99850.88
2022-08-16T23:23:48.978Z,99844.03
2022-08-16T23:27:51.210Z,99850.28
2022-08-16T23:31:58.645Z,99835.50
2022-08-16T23:36:01.453Z,99840.81
2022-08-16T23:40:05.025Z,99839.16
2022-08-16T23:44:56.923Z,99834.16
2022-08-16T23:48:31.436Z,99838.59
2022-08-16T23:53:04.096Z,99839.59
2022-08-16T23:57:05.648Z,99829.19
